sensor_id;sensor_type;location;lat;lon;timestamp;pressure;altitude;pressure_sealevel;temperature;humidity
71774;BME280;59607;52.130;5.430;2023-05-21T00:01:27;102044.66;;;15.46;69.82
71774;BME280;59607;52.130;5.430;2023-05-21T00:03:59;102037.53;;;15.46;69.93
71774;BME280;59607;52.130;5.430;2023-05-21T00:06:26;102041.34;;;15.44;69.81
71774;BME280;59607;52.130;5.430;2023-05-21T00:08:55;102032.75;;;15.41;70.19
71774;BME280;59607;52.130;5.430;2023-05-21T00:11:21;102028.47;;;15.40;70.15
71774;BME280;59607;52.130;5.430;2023-05-21T00:13:48;102026.34;;;15.36;70.63
71774;BME280;59607;52.130;5.430;2023-05-21T00:16:28;102027.97;;;15.37;70.26
71774;BME280;59607;52.130;5.430;2023-05-21T00:18:55;102035.06;;;15.36;70.89
71774;BME280;59607;52.130;5.430;2023-05-21T00:21:28;102039.22;;;15.39;70.46
71774;BME280;59607;52.130;5.430;2023-05-21T00:23:56;102027.47;;;15.33;71.10
71774;BME280;59607;52.130;5.430;2023-05-21T00:26:25;102028.31;;;15.34;71.35
71774;BME280;59607;52.130;5.430;2023-05-21T00:28:55;102024.19;;;15.31;71.60
71774;BME280;59607;52.130;5.430;2023-05-21T00:31:22;102021.38;;;15.33;71.40
71774;BME280;59607;52.130;5.430;2023-05-21T00:34:02;102012.09;;;15.28;71.91
71774;BME280;59607;52.130;5.430;2023-05-21T00:36:39;102014.91;;;15.27;72.21
71774;BME280;59607;52.130;5.430;2023-05-21T00:39:12;102017.56;;;15.27;71.91
71774;BME280;59607;52.130;5.430;2023-05-21T00:41:47;102014.25;;;15.25;72.56
71774;BME280;59607;52.130;5.430;2023-05-21T00:44:29;102013.59;;;15.23;72.82
71774;BME280;59607;52.130;5.430;2023-05-21T00:47:03;102010.97;;;15.23;72.91
71774;BME280;59607;52.130;5.430;2023-05-21T00:49:30;102012.09;;;15.20;73.05
71774;BME280;59607;52.130;5.430;2023-05-21T00:51:59;102012.09;;;15.20;73.28
71774;BME280;59607;52.130;5.430;2023-05-21T00:54:30;102002.69;;;15.17;73.57
71774;BME280;59607;52.130;5.430;2023-05-21T00:57:01;102001.69;;;15.18;73.83
71774;BME280;59607;52.130;5.430;2023-05-21T00:59:31;102006.16;;;15.18;73.62
71774;BME280;59607;52.130;5.430;2023-05-21T01:02:04;102006.34;;;15.16;73.73
71774;BME280;59607;52.130;5.430;2023-05-21T01:04:34;101998.41;;;15.16;74.03
71774;BME280;59607;52.130;5.430;2023-05-21T01:07:01;101997.75;;;15.14;74.22
71774;BME280;59607;52.130;5.430;2023-05-21T01:09:42;101995.94;;;15.15;74.12
71774;BME280;59607;52.130;5.430;2023-05-21T01:12:19;102000.56;;;15.13;74.38
71774;BME280;59607;52.130;5.430;2023-05-21T01:14:47;101991.94;;;15.11;74.81
71774;BME280;59607;52.130;5.430;2023-05-21T01:17:19;101998.41;;;15.08;75.46
71774;BME280;59607;52.130;5.430;2023-05-21T01:19:50;101992.13;;;15.09;75.01
71774;BME280;59607;52.130;5.430;2023-05-21T01:22:21;101983.84;;;15.04;75.54
71774;BME280;59607;52.130;5.430;2023-05-21T01:24:56;101986.16;;;15.07;75.42
71774;BME280;59607;52.130;5.430;2023-05-21T01:27:22;101987.16;;;15.06;75.72
71774;BME280;59607;52.130;5.430;2023-05-21T01:29:49;101985.69;;;15.03;76.01
71774;BME280;59607;52.130;5.430;2023-05-21T01:32:37;101986.03;;;15.00;75.69
71774;BME280;59607;52.130;5.430;2023-05-21T01:35:40;101984.50;;;14.98;75.53
71774;BME280;59607;52.130;5.430;2023-05-21T01:38:13;101976.25;;;14.92;76.55
71774;BME280;59607;52.130;5.430;2023-05-21T01:40:57;101979.06;;;14.91;76.50
71774;BME280;59607;52.130;5.430;2023-05-21T01:43:26;101973.94;;;14.89;76.49
71774;BME280;59607;52.130;5.430;2023-05-21T01:45:58;101975.75;;;14.89;76.37
71774;BME280;59607;52.130;5.430;2023-05-21T01:48:27;101984.81;;;14.86;76.70
71774;BME280;59607;52.130;5.430;2023-05-21T01:51:05;101977.75;;;14.87;76.88
71774;BME280;59607;52.130;5.430;2023-05-21T01:53:46;101982.34;;;14.85;77.46
71774;BME280;59607;52.130;5.430;2023-05-21T01:56:12;101983.19;;;14.85;77.29
71774;BME280;59607;52.130;5.430;2023-05-21T01:58:48;101974.59;;;14.83;77.48
71774;BME280;59607;52.130;5.430;2023-05-21T02:01:29;101984.47;;;14.81;77.71
71774;BME280;59607;52.130;5.430;2023-05-21T02:03:58;101986.44;;;14.79;78.26
71774;BME280;59607;52.130;5.430;2023-05-21T02:06:29;101977.00;;;14.76;78.43
71774;BME280;59607;52.130;5.430;2023-05-21T02:09:01;101980.81;;;14.74;78.74
71774;BME280;59607;52.130;5.430;2023-05-21T02:11:33;101977.69;;;14.78;78.99
71774;BME280;59607;52.130;5.430;2023-05-21T02:14:09;101980.50;;;14.77;78.92
71774;BME280;59607;52.130;5.430;2023-05-21T02:16:35;101979.97;;;14.73;79.35
71774;BME280;59607;52.130;5.430;2023-05-21T02:19:11;101965.31;;;14.71;80.05
71774;BME280;59607;52.130;5.430;2023-05-21T02:21:37;101972.56;;;14.68;79.84
71774;BME280;59607;52.130;5.430;2023-05-21T02:24:07;101969.25;;;14.66;80.92
71774;BME280;59607;52.130;5.430;2023-05-21T02:26:35;101974.84;;;14.63;80.65
71774;BME280;59607;52.130;5.430;2023-05-21T02:29:02;101965.59;;;14.59;81.07
71774;BME280;59607;52.130;5.430;2023-05-21T02:31:32;101973.38;;;14.61;81.42
71774;BME280;59607;52.130;5.430;2023-05-21T02:33:59;101971.72;;;14.60;81.70
71774;BME280;59607;52.130;5.430;2023-05-21T02:36:26;101976.50;;;14.56;82.18
71774;BME280;59607;52.130;5.430;2023-05-21T02:38:56;101979.13;;;14.56;82.49
71774;BME280;59607;52.130;5.430;2023-05-21T02:41:23;101972.19;;;14.55;82.53
71774;BME280;59607;52.130;5.430;2023-05-21T02:43:50;101974.97;;;14.53;82.99
71774;BME280;59607;52.130;5.430;2023-05-21T02:46:19;101973.34;;;14.52;82.98
71774;BME280;59607;52.130;5.430;2023-05-21T02:48:47;101970.88;;;14.51;83.81
71774;BME280;59607;52.130;5.430;2023-05-21T02:51:13;101971.03;;;14.49;84.19
71774;BME280;59607;52.130;5.430;2023-05-21T02:53:46;101967.88;;;14.46;83.98
71774;BME280;59607;52.130;5.430;2023-05-21T02:56:15;101977.78;;;14.43;84.67
71774;BME280;59607;52.130;5.430;2023-05-21T02:58:44;101983.06;;;14.43;85.39
71774;BME280;59607;52.130;5.430;2023-05-21T03:01:16;101976.94;;;14.43;84.90
71774;BME280;59607;52.130;5.430;2023-05-21T03:03:43;101970.31;;;14.39;85.50
71774;BME280;59607;52.130;5.430;2023-05-21T03:06:10;101971.00;;;14.41;86.19
71774;BME280;59607;52.130;5.430;2023-05-21T03:08:39;101973.97;;;14.38;86.04
71774;BME280;59607;52.130;5.430;2023-05-21T03:11:06;101966.03;;;14.38;86.10
71774;BME280;59607;52.130;5.430;2023-05-21T03:13:33;101968.00;;;14.36;86.62
71774;BME280;59607;52.130;5.430;2023-05-21T03:16:03;101968.84;;;14.36;86.77
71774;BME280;59607;52.130;5.430;2023-05-21T03:18:29;101968.84;;;14.36;87.25
71774;BME280;59607;52.130;5.430;2023-05-21T03:21:02;101971.47;;;14.36;87.44
71774;BME280;59607;52.130;5.430;2023-05-21T03:23:33;101956.31;;;14.38;87.52
71774;BME280;59607;52.130;5.430;2023-05-21T03:26:08;101961.44;;;14.40;87.60
71774;BME280;59607;52.130;5.430;2023-05-21T03:28:34;101956.16;;;14.40;87.76
71774;BME280;59607;52.130;5.430;2023-05-21T03:31:07;101949.22;;;14.39;87.79
71774;BME280;59607;52.130;5.430;2023-05-21T03:33:40;101954.31;;;14.40;88.17
71774;BME280;59607;52.130;5.430;2023-05-21T03:36:13;101951.69;;;14.40;87.81
71774;BME280;59607;52.130;5.430;2023-05-21T03:38:40;101950.72;;;14.41;87.83
71774;BME280;59607;52.130;5.430;2023-05-21T03:41:10;101954.31;;;14.40;88.54
71774;BME280;59607;52.130;5.430;2023-05-21T03:43:40;101947.41;;;14.39;88.77
71774;BME280;59607;52.130;5.430;2023-05-21T03:46:09;101955.16;;;14.41;89.33
71774;BME280;59607;52.130;5.430;2023-05-21T03:48:53;101947.91;;;14.43;89.14
71774;BME280;59607;52.130;5.430;2023-05-21T03:51:22;101948.75;;;14.43;88.93
71774;BME280;59607;52.130;5.430;2023-05-21T03:53:50;101946.25;;;14.42;89.05
71774;BME280;59607;52.130;5.430;2023-05-21T03:56:27;101946.13;;;14.43;89.19
71774;BME280;59607;52.130;5.430;2023-05-21T03:58:59;101946.25;;;14.42;89.77
71774;BME280;59607;52.130;5.430;2023-05-21T04:01:27;101942.78;;;14.41;89.77
71774;BME280;59607;52.130;5.430;2023-05-21T04:03:54;101946.13;;;14.43;90.11
71774;BME280;59607;52.130;5.430;2023-05-21T04:06:23;101944.13;;;14.46;90.55
71774;BME280;59607;52.130;5.430;2023-05-21T04:08:53;101944.94;;;14.46;90.81
71774;BME280;59607;52.130;5.430;2023-05-21T04:11:20;101945.94;;;14.45;90.94
71774;BME280;59607;52.130;5.430;2023-05-21T04:13:46;101942.47;;;14.44;91.59
71774;BME280;59607;52.130;5.430;2023-05-21T04:16:16;101941.47;;;14.46;92.05
71774;BME280;59607;52.130;5.430;2023-05-21T04:18:45;101948.44;;;14.47;92.39
71774;BME280;59607;52.130;5.430;2023-05-21T04:21:14;101943.31;;;14.45;92.56
71774;BME280;59607;52.130;5.430;2023-05-21T04:23:43;101942.63;;;14.43;93.54
71774;BME280;59607;52.130;5.430;2023-05-21T04:26:10;101944.44;;;14.42;93.41
71774;BME280;59607;52.130;5.430;2023-05-21T04:28:44;101954.84;;;14.44;93.17
71774;BME280;59607;52.130;5.430;2023-05-21T04:31:11;101946.44;;;14.49;93.56
71774;BME280;59607;52.130;5.430;2023-05-21T04:33:41;101952.91;;;14.54;93.52
71774;BME280;59607;52.130;5.430;2023-05-21T04:36:11;101953.06;;;14.53;93.35
71774;BME280;59607;52.130;5.430;2023-05-21T04:38:44;101958.50;;;14.51;93.57
71774;BME280;59607;52.130;5.430;2023-05-21T04:41:13;101953.06;;;14.53;93.53
71774;BME280;59607;52.130;5.430;2023-05-21T04:43:40;101958.81;;;14.56;93.67
71774;BME280;59607;52.130;5.430;2023-05-21T04:46:14;101956.84;;;14.59;93.53
71774;BME280;59607;52.130;5.430;2023-05-21T04:48:41;101952.72;;;14.56;92.97
71774;BME280;59607;52.130;5.430;2023-05-21T04:51:15;101954.03;;;14.52;93.92
71774;BME280;59607;52.130;5.430;2023-05-21T04:53:41;101949.59;;;14.52;93.75
71774;BME280;59607;52.130;5.430;2023-05-21T04:56:08;101956.03;;;14.58;94.24
71774;BME280;59607;52.130;5.430;2023-05-21T04:58:40;101953.72;;;14.63;92.96
71774;BME280;59607;52.130;5.430;2023-05-21T05:01:07;101954.72;;;14.62;93.35
71774;BME280;59607;52.130;5.430;2023-05-21T05:03:44;101965.13;;;14.64;93.46
71774;BME280;59607;52.130;5.430;2023-05-21T05:06:18;101964.97;;;14.65;93.57
71774;BME280;59607;52.130;5.430;2023-05-21T05:08:45;101963.16;;;14.66;93.52
71774;BME280;59607;52.130;5.430;2023-05-21T05:11:12;101961.66;;;14.72;93.29
71774;BME280;59607;52.130;5.430;2023-05-21T05:13:47;101965.13;;;14.72;93.07
71774;BME280;59607;52.130;5.430;2023-05-21T05:16:14;101956.72;;;14.77;92.98
71774;BME280;59607;52.130;5.430;2023-05-21T05:18:57;101955.44;;;14.81;93.56
71774;BME280;59607;52.130;5.430;2023-05-21T05:21:39;101957.75;;;14.84;93.19
71774;BME280;59607;52.130;5.430;2023-05-21T05:24:14;101955.78;;;14.86;91.98
71774;BME280;59607;52.130;5.430;2023-05-21T05:26:41;101952.13;;;14.79;92.57
71774;BME280;59607;52.130;5.430;2023-05-21T05:29:12;101950.44;;;14.78;93.03
71774;BME280;59607;52.130;5.430;2023-05-21T05:31:38;101957.41;;;14.79;93.80
71774;BME280;59607;52.130;5.430;2023-05-21T05:34:04;101953.13;;;14.86;93.17
71774;BME280;59607;52.130;5.430;2023-05-21T05:36:34;101958.09;;;14.89;92.28
71774;BME280;59607;52.130;5.430;2023-05-21T05:39:03;101955.44;;;14.81;92.83
71774;BME280;59607;52.130;5.430;2023-05-21T05:41:30;101945.38;;;14.85;92.74
71774;BME280;59607;52.130;5.430;2023-05-21T05:43:59;101956.25;;;14.82;93.43
71774;BME280;59607;52.130;5.430;2023-05-21T05:46:25;101957.91;;;14.83;93.37
71774;BME280;59607;52.130;5.430;2023-05-21T05:48:52;101954.81;;;14.87;93.11
71774;BME280;59607;52.130;5.430;2023-05-21T05:51:19;101951.00;;;14.90;92.33
71774;BME280;59607;52.130;5.430;2023-05-21T05:53:51;101961.72;;;14.88;93.45
71774;BME280;59607;52.130;5.430;2023-05-21T05:56:17;101954.94;;;14.94;92.51
71774;BME280;59607;52.130;5.430;2023-05-21T05:58:53;101951.00;;;14.90;92.59
71774;BME280;59607;52.130;5.430;2023-05-21T06:01:19;101955.63;;;14.96;93.19
71774;BME280;59607;52.130;5.430;2023-05-21T06:03:51;101951.66;;;15.00;92.33
71774;BME280;59607;52.130;5.430;2023-05-21T06:06:22;101946.88;;;15.04;91.57
71774;BME280;59607;52.130;5.430;2023-05-21T06:08:49;101954.47;;;15.15;90.99
71774;BME280;59607;52.130;5.430;2023-05-21T06:11:22;101955.47;;;15.31;89.57
71774;BME280;59607;52.130;5.430;2023-05-21T06:13:49;101944.66;;;15.58;88.12
71774;BME280;59607;52.130;5.430;2023-05-21T06:16:19;101939.69;;;15.63;87.32
71774;BME280;59607;52.130;5.430;2023-05-21T06:18:48;101945.78;;;15.72;86.92
71774;BME280;59607;52.130;5.430;2023-05-21T06:21:15;101936.59;;;16.08;85.32
71774;BME280;59607;52.130;5.430;2023-05-21T06:23:49;101930.00;;;16.35;83.55
71774;BME280;59607;52.130;5.430;2023-05-21T06:26:16;101930.72;;;16.76;80.94
71774;BME280;59607;52.130;5.430;2023-05-21T06:28:49;101934.78;;;16.63;80.07
71774;BME280;59607;52.130;5.430;2023-05-21T06:31:15;101938.97;;;16.58;80.77
71774;BME280;59607;52.130;5.430;2023-05-21T06:33:42;101936.06;;;16.68;80.00
71774;BME280;59607;52.130;5.430;2023-05-21T06:36:28;101933.44;;;16.68;80.78
71774;BME280;59607;52.130;5.430;2023-05-21T06:38:55;101927.78;;;16.71;80.08
71774;BME280;59607;52.130;5.430;2023-05-21T06:41:22;101933.84;;;16.56;80.58
71774;BME280;59607;52.130;5.430;2023-05-21T06:43:54;101933.22;;;16.54;80.77
71774;BME280;59607;52.130;5.430;2023-05-21T06:46:25;101922.09;;;16.59;80.88
71774;BME280;59607;52.130;5.430;2023-05-21T06:48:57;101927.38;;;16.59;81.25
71774;BME280;59607;52.130;5.430;2023-05-21T06:51:27;101929.44;;;16.72;80.17
71774;BME280;59607;52.130;5.430;2023-05-21T06:53:53;101932.19;;;16.55;81.11
71774;BME280;59607;52.130;5.430;2023-05-21T06:56:25;101930.03;;;16.59;81.11
71774;BME280;59607;52.130;5.430;2023-05-21T06:58:51;101932.91;;;16.72;80.92
71774;BME280;59607;52.130;5.430;2023-05-21T07:01:22;101917.25;;;16.62;81.22
71774;BME280;59607;52.130;5.430;2023-05-21T07:03:48;101927.50;;;16.65;80.80
71774;BME280;59607;52.130;5.430;2023-05-21T07:06:15;101919.63;;;16.57;81.39
71774;BME280;59607;52.130;5.430;2023-05-21T07:08:42;101921.25;;;16.58;81.42
71774;BME280;59607;52.130;5.430;2023-05-21T07:11:16;101920.53;;;16.64;81.97
71774;BME280;59607;52.130;5.430;2023-05-21T07:13:46;101919.59;;;16.81;81.02
71774;BME280;59607;52.130;5.430;2023-05-21T07:16:17;101918.63;;;16.97;79.79
71774;BME280;59607;52.130;5.430;2023-05-21T07:18:44;101912.28;;;17.06;79.42
71774;BME280;59607;52.130;5.430;2023-05-21T07:21:15;101924.88;;;17.04;79.18
71774;BME280;59607;52.130;5.430;2023-05-21T07:23:44;101928.28;;;17.13;78.53
71774;BME280;59607;52.130;5.430;2023-05-21T07:26:10;101916.00;;;17.35;76.91
71774;BME280;59607;52.130;5.430;2023-05-21T07:28:37;101918.41;;;17.45;77.07
71774;BME280;59607;52.130;5.430;2023-05-21T07:31:06;101932.19;;;17.41;77.52
71774;BME280;59607;52.130;5.430;2023-05-21T07:33:39;101926.88;;;17.56;76.57
71774;BME280;59607;52.130;5.430;2023-05-21T07:36:07;101928.34;;;17.88;74.88
71774;BME280;59607;52.130;5.430;2023-05-21T07:38:33;101919.44;;;17.96;73.70
71774;BME280;59607;52.130;5.430;2023-05-21T07:41:00;101925.78;;;17.95;73.69
71774;BME280;59607;52.130;5.430;2023-05-21T07:43:26;101916.94;;;18.25;72.94
71774;BME280;59607;52.130;5.430;2023-05-21T07:45:53;101922.78;;;18.57;72.43
71774;BME280;59607;52.130;5.430;2023-05-21T07:48:19;101923.16;;;18.54;70.31
71774;BME280;59607;52.130;5.430;2023-05-21T07:50:52;101924.09;;;18.46;71.04
71774;BME280;59607;52.130;5.430;2023-05-21T07:53:23;101921.88;;;18.28;71.42
71774;BME280;59607;52.130;5.430;2023-05-21T07:55:52;101930.38;;;18.38;70.14
71774;BME280;59607;52.130;5.430;2023-05-21T07:58:21;101916.91;;;18.40;69.96
71774;BME280;59607;52.130;5.430;2023-05-21T08:00:48;101912.47;;;18.69;69.56
71774;BME280;59607;52.130;5.430;2023-05-21T08:03:30;101907.09;;;18.62;69.08
71774;BME280;59607;52.130;5.430;2023-05-21T08:06:12;101896.59;;;18.54;70.04
71774;BME280;59607;52.130;5.430;2023-05-21T08:08:52;101900.28;;;18.53;69.52
71774;BME280;59607;52.130;5.430;2023-05-21T08:11:20;101899.56;;;18.66;70.78
71774;BME280;59607;52.130;5.430;2023-05-21T08:13:49;101894.91;;;18.68;70.13
71774;BME280;59607;52.130;5.430;2023-05-21T08:16:15;101890.06;;;18.79;70.63
71774;BME280;59607;52.130;5.430;2023-05-21T08:18:45;101898.53;;;18.89;69.37
71774;BME280;59607;52.130;5.430;2023-05-21T08:21:15;101896.22;;;18.79;70.56
71774;BME280;59607;52.130;5.430;2023-05-21T08:23:43;101893.88;;;18.98;70.68
71774;BME280;59607;52.130;5.430;2023-05-21T08:26:10;101894.22;;;18.88;70.11
71774;BME280;59607;52.130;5.430;2023-05-21T08:28:37;101889.72;;;18.89;69.84
71774;BME280;59607;52.130;5.430;2023-05-21T08:31:04;101891.09;;;19.06;69.83
71774;BME280;59607;52.130;5.430;2023-05-21T08:33:40;101891.16;;;19.13;69.45
71774;BME280;59607;52.130;5.430;2023-05-21T08:36:17;101895.94;;;18.96;70.74
71774;BME280;59607;52.130;5.430;2023-05-21T08:38:46;101899.63;;;19.02;69.84
71774;BME280;59607;52.130;5.430;2023-05-21T08:41:15;101887.88;;;19.11;69.22
71774;BME280;59607;52.130;5.430;2023-05-21T08:43:46;101894.66;;;19.14;69.30
71774;BME280;59607;52.130;5.430;2023-05-21T08:46:17;101892.94;;;19.34;68.86
71774;BME280;59607;52.130;5.430;2023-05-21T08:48:50;101889.59;;;19.26;67.90
71774;BME280;59607;52.130;5.430;2023-05-21T08:51:20;101893.47;;;19.23;68.21
71774;BME280;59607;52.130;5.430;2023-05-21T08:53:51;101893.44;;;19.52;67.21
71774;BME280;59607;52.130;5.430;2023-05-21T08:56:19;101895.94;;;19.60;67.21
71774;BME280;59607;52.130;5.430;2023-05-21T08:58:50;101894.41;;;19.86;67.68
71774;BME280;59607;52.130;5.430;2023-05-21T09:01:20;101896.78;;;20.23;64.45
71774;BME280;59607;52.130;5.430;2023-05-21T09:03:57;101903.88;;;20.02;64.70
71774;BME280;59607;52.130;5.430;2023-05-21T09:06:44;101893.00;;;19.97;64.58
71774;BME280;59607;52.130;5.430;2023-05-21T09:09:31;101897.38;;;20.18;65.09
71774;BME280;59607;52.130;5.430;2023-05-21T09:12:24;101899.28;;;20.38;63.45
71774;BME280;59607;52.130;5.430;2023-05-21T09:15:10;101898.22;;;20.32;63.51
71774;BME280;59607;52.130;5.430;2023-05-21T09:17:46;101889.63;;;20.44;63.25
71774;BME280;59607;52.130;5.430;2023-05-21T09:20:14;101885.97;;;20.38;63.19
71774;BME280;59607;52.130;5.430;2023-05-21T09:22:55;101887.78;;;20.38;62.54
71774;BME280;59607;52.130;5.430;2023-05-21T09:25:25;101891.06;;;20.33;62.52
71774;BME280;59607;52.130;5.430;2023-05-21T09:28:01;101878.59;;;20.40;62.43
71774;BME280;59607;52.130;5.430;2023-05-21T09:30:27;101888.22;;;20.82;62.54
71774;BME280;59607;52.130;5.430;2023-05-21T09:32:58;101882.88;;;20.62;61.71
71774;BME280;59607;52.130;5.430;2023-05-21T09:35:26;101880.44;;;20.74;62.40
71774;BME280;59607;52.130;5.430;2023-05-21T09:37:58;101876.31;;;20.84;60.91
71774;BME280;59607;52.130;5.430;2023-05-21T09:40:26;101880.22;;;20.89;61.08
71774;BME280;59607;52.130;5.430;2023-05-21T09:42:55;101873.25;;;20.88;61.64
71774;BME280;59607;52.130;5.430;2023-05-21T09:45:25;101881.25;;;20.88;60.58
71774;BME280;59607;52.130;5.430;2023-05-21T09:47:58;101868.16;;;20.73;60.84
71774;BME280;59607;52.130;5.430;2023-05-21T09:50:27;101868.09;;;20.86;61.25
71774;BME280;59607;52.130;5.430;2023-05-21T09:52:56;101861.16;;;20.85;60.86
71774;BME280;59607;52.130;5.430;2023-05-21T09:55:27;101860.34;;;20.98;60.76
71774;BME280;59607;52.130;5.430;2023-05-21T09:57:53;101861.53;;;21.09;60.41
71774;BME280;59607;52.130;5.430;2023-05-21T10:00:31;101852.47;;;21.30;59.95
71774;BME280;59607;52.130;5.430;2023-05-21T10:03:04;101854.03;;;21.52;59.78
71774;BME280;59607;52.130;5.430;2023-05-21T10:05:36;101845.19;;;21.51;59.86
71774;BME280;59607;52.130;5.430;2023-05-21T10:08:07;101834.72;;;21.56;60.19
71774;BME280;59607;52.130;5.430;2023-05-21T10:10:43;101839.84;;;21.58;58.84
71774;BME280;59607;52.130;5.430;2023-05-21T10:13:37;101839.53;;;21.34;59.32
71774;BME280;59607;52.130;5.430;2023-05-21T10:16:07;101837.22;;;21.44;59.13
71774;BME280;59607;52.130;5.430;2023-05-21T10:18:41;101829.41;;;21.50;59.24
71774;BME280;59607;52.130;5.430;2023-05-21T10:21:11;101843.56;;;21.50;59.28
71774;BME280;59607;52.130;5.430;2023-05-21T10:23:42;101830.78;;;21.59;59.14
71774;BME280;59607;52.130;5.430;2023-05-21T10:26:10;101836.31;;;21.64;58.67
71774;BME280;59607;52.130;5.430;2023-05-21T10:28:43;101823.56;;;21.73;58.86
71774;BME280;59607;52.130;5.430;2023-05-21T10:31:11;101827.22;;;21.72;58.31
71774;BME280;59607;52.130;5.430;2023-05-21T10:33:43;101831.34;;;21.81;58.28
71774;BME280;59607;52.130;5.430;2023-05-21T10:36:15;101837.63;;;21.94;58.38
71774;BME280;59607;52.130;5.430;2023-05-21T10:38:46;101827.06;;;22.06;57.27
71774;BME280;59607;52.130;5.430;2023-05-21T10:41:16;101819.19;;;22.18;57.71
71774;BME280;59607;52.130;5.430;2023-05-21T10:43:51;101811.88;;;22.58;57.39
71774;BME280;59607;52.130;5.430;2023-05-21T10:49:53;101805.44;;;22.84;56.63
71774;BME280;59607;52.130;5.430;2023-05-21T10:58:24;101811.00;;;22.64;55.69
71774;BME280;59607;52.130;5.430;2023-05-21T11:01:01;101804.56;;;23.09;54.70
71774;BME280;59607;52.130;5.430;2023-05-21T11:03:29;101801.38;;;23.00;55.53
71774;BME280;59607;52.130;5.430;2023-05-21T11:06:06;101804.03;;;23.00;55.39
71774;BME280;59607;52.130;5.430;2023-05-21T11:08:34;101811.34;;;23.30;54.66
71774;BME280;59607;52.130;5.430;2023-05-21T11:11:51;101803.31;;;23.12;55.34
71774;BME280;59607;52.130;5.430;2023-05-21T11:17:36;101813.09;;;22.62;56.53
71774;BME280;59607;52.130;5.430;2023-05-21T11:20:09;101805.03;;;23.06;55.37
71774;BME280;59607;52.130;5.430;2023-05-21T11:22:50;101804.88;;;22.82;55.57
71774;BME280;59607;52.130;5.430;2023-05-21T11:25:19;101799.88;;;22.67;55.93
71774;BME280;59607;52.130;5.430;2023-05-21T11:27:46;101794.63;;;22.98;55.64
71774;BME280;59607;52.130;5.430;2023-05-21T11:30:30;101792.53;;;23.00;54.35
71774;BME280;59607;52.130;5.430;2023-05-21T11:38:12;101776.03;;;23.03;55.20
71774;BME280;59607;52.130;5.430;2023-05-21T11:40:49;101773.16;;;23.04;54.88
71774;BME280;59607;52.130;5.430;2023-05-21T11:43:20;101767.78;;;22.67;55.71
71774;BME280;59607;52.130;5.430;2023-05-21T11:45:46;101781.59;;;22.83;56.01
71774;BME280;59607;52.130;5.430;2023-05-21T11:48:12;101776.53;;;22.74;56.02
71774;BME280;59607;52.130;5.430;2023-05-21T11:50:44;101763.03;;;22.88;56.15
71774;BME280;59607;52.130;5.430;2023-05-21T11:53:10;101765.78;;;23.00;54.88
71774;BME280;59607;52.130;5.430;2023-05-21T11:55:37;101764.59;;;23.14;54.95
71774;BME280;59607;52.130;5.430;2023-05-21T11:58:30;101757.34;;;23.34;54.41
71774;BME280;59607;52.130;5.430;2023-05-21T12:01:00;101755.19;;;23.24;54.71
71774;BME280;59607;52.130;5.430;2023-05-21T12:03:26;101755.44;;;23.22;54.92
71774;BME280;59607;52.130;5.430;2023-05-21T12:06:03;101754.28;;;23.30;54.88
71774;BME280;59607;52.130;5.430;2023-05-21T12:08:40;101754.97;;;23.25;54.74
71774;BME280;59607;52.130;5.430;2023-05-21T12:11:07;101744.34;;;23.18;55.07
71774;BME280;59607;52.130;5.430;2023-05-21T12:13:41;101733.28;;;23.15;55.23
71774;BME280;59607;52.130;5.430;2023-05-21T12:16:09;101752.22;;;23.32;55.57
71774;BME280;59607;52.130;5.430;2023-05-21T12:18:35;101749.38;;;23.46;54.07
71774;BME280;59607;52.130;5.430;2023-05-21T12:21:05;101757.06;;;23.42;54.51
71774;BME280;59607;52.130;5.430;2023-05-21T12:23:32;101746.91;;;23.44;54.72
71774;BME280;59607;52.130;5.430;2023-05-21T12:25:59;101739.84;;;23.50;54.38
71774;BME280;59607;52.130;5.430;2023-05-21T12:28:32;101726.63;;;23.67;54.68
71774;BME280;59607;52.130;5.430;2023-05-21T12:30:59;101736.06;;;23.82;53.61
71774;BME280;59607;52.130;5.430;2023-05-21T12:33:44;101729.75;;;23.33;54.85
71774;BME280;59607;52.130;5.430;2023-05-21T12:36:25;101727.44;;;23.37;55.20
71774;BME280;59607;52.130;5.430;2023-05-21T12:38:57;101725.69;;;23.30;55.32
71774;BME280;59607;52.130;5.430;2023-05-21T12:41:25;101731.50;;;23.27;56.47
71774;BME280;59607;52.130;5.430;2023-05-21T12:43:58;101733.31;;;23.46;55.73
71774;BME280;59607;52.130;5.430;2023-05-21T12:46:24;101733.53;;;23.44;54.56
71774;BME280;59607;52.130;5.430;2023-05-21T12:48:53;101733.78;;;23.24;55.21
71774;BME280;59607;52.130;5.430;2023-05-21T12:51:38;101735.03;;;23.40;54.95
71774;BME280;59607;52.130;5.430;2023-05-21T12:54:11;101730.84;;;23.87;53.89
71774;BME280;59607;52.130;5.430;2023-05-21T12:56:47;101726.25;;;23.51;54.64
71774;BME280;59607;52.130;5.430;2023-05-21T12:59:13;101734.28;;;23.33;54.84
71774;BME280;59607;52.130;5.430;2023-05-21T13:01:59;101726.31;;;23.14;55.39
71774;BME280;59607;52.130;5.430;2023-05-21T13:04:35;101731.94;;;23.24;55.80
71774;BME280;59607;52.130;5.430;2023-05-21T13:07:01;101737.41;;;23.48;55.46
71774;BME280;59607;52.130;5.430;2023-05-21T13:09:48;101734.34;;;23.45;54.96
71774;BME280;59607;52.130;5.430;2023-05-21T13:12:23;101732.28;;;23.47;55.33
71774;BME280;59607;52.130;5.430;2023-05-21T13:15:10;101730.03;;;23.74;54.55
71774;BME280;59607;52.130;5.430;2023-05-21T13:17:36;101721.97;;;23.86;54.58
71774;BME280;59607;52.130;5.430;2023-05-21T13:20:13;101734.28;;;24.18;53.42
71774;BME280;59607;52.130;5.430;2023-05-21T13:22:54;101728.66;;;24.08;53.82
71774;BME280;59607;52.130;5.430;2023-05-21T13:25:23;101714.56;;;24.00;53.87
71774;BME280;59607;52.130;5.430;2023-05-21T13:27:51;101709.53;;;23.92;54.29
71774;BME280;59607;52.130;5.430;2023-05-21T13:30:32;101704.72;;;23.58;54.54